Terminal Aerodrome Forecast
Issued by NWS

Home | Current Version | Previous Version | Text Only | Print | Product List | Glossary On
Versions: 1 2 3 4 5 6 7 8 9 10 11 12 13 14 15
000
FTUS45 KRIW 261700
TAFCPR
TAF
KCPR 261729Z 2618/2718 24010KT P6SM SCT030 BKN050
     FM262100 23015G25KT P6SM SCT040 BKN080
     FM270700 23020G30KT P6SM SCT100 BKN200=

USA.gov is the U.S. government's official web portal to all federal, state and local government web resources and services.